sensor_id;sensor_type;location;lat;lon;timestamp;P1;durP1;ratioP1;P2;durP2;ratioP2
75087;SDS011;63664;44.868;40.600;2023-08-21T00:00:27;5.38;;;2.67;;
75087;SDS011;63664;44.868;40.600;2023-08-21T00:02:53;5.50;;;3.42;;
75087;SDS011;63664;44.868;40.600;2023-08-21T00:05:20;6.38;;;2.60;;
75087;SDS011;63664;44.868;40.600;2023-08-21T00:07:46;6.22;;;3.20;;
75087;SDS011;63664;44.868;40.600;2023-08-21T00:10:17;4.25;;;2.75;;
75087;SDS011;63664;44.868;40.600;2023-08-21T00:12:43;8.32;;;3.10;;
75087;SDS011;63664;44.868;40.600;2023-08-21T00:15:09;9.50;;;2.90;;
75087;SDS011;63664;44.868;40.600;2023-08-21T00:17:35;6.25;;;3.10;;
75087;SDS011;63664;44.868;40.600;2023-08-21T00:20:02;11.68;;;3.40;;
75087;SDS011;63664;44.868;40.600;2023-08-21T00:22:28;4.28;;;2.65;;
75087;SDS011;63664;44.868;40.600;2023-08-21T00:24:54;6.60;;;2.75;;
75087;SDS011;63664;44.868;40.600;2023-08-21T00:27:21;8.15;;;2.92;;
75087;SDS011;63664;44.868;40.600;2023-08-21T00:29:47;7.03;;;2.92;;
75087;SDS011;63664;44.868;40.600;2023-08-21T00:32:13;6.22;;;3.13;;
75087;SDS011;63664;44.868;40.600;2023-08-21T00:34:40;5.97;;;2.88;;
75087;SDS011;63664;44.868;40.600;2023-08-21T00:37:06;8.90;;;2.75;;
75087;SDS011;63664;44.868;40.600;2023-08-21T00:39:32;5.05;;;2.55;;
75087;SDS011;63664;44.868;40.600;2023-08-21T00:41:58;5.25;;;2.85;;
75087;SDS011;63664;44.868;40.600;2023-08-21T00:44:24;7.28;;;2.67;;
75087;SDS011;63664;44.868;40.600;2023-08-21T00:46:51;3.97;;;2.60;;
75087;SDS011;63664;44.868;40.600;2023-08-21T00:49:17;7.50;;;2.90;;
75087;SDS011;63664;44.868;40.600;2023-08-21T00:51:44;6.03;;;2.50;;
75087;SDS011;63664;44.868;40.600;2023-08-21T00:54:11;6.30;;;2.60;;
75087;SDS011;63664;44.868;40.600;2023-08-21T00:56:37;4.72;;;2.13;;
75087;SDS011;63664;44.868;40.600;2023-08-21T00:59:04;9.55;;;2.75;;
75087;SDS011;63664;44.868;40.600;2023-08-21T01:01:32;5.10;;;2.65;;
75087;SDS011;63664;44.868;40.600;2023-08-21T01:04:00;11.93;;;2.97;;
75087;SDS011;63664;44.868;40.600;2023-08-21T01:06:27;5.70;;;2.72;;
75087;SDS011;63664;44.868;40.600;2023-08-21T01:08:57;6.80;;;2.60;;
75087;SDS011;63664;44.868;40.600;2023-08-21T01:12:06;9.07;;;3.00;;
75087;SDS011;63664;44.868;40.600;2023-08-21T01:15:03;8.13;;;2.80;;
75087;SDS011;63664;44.868;40.600;2023-08-21T01:17:33;5.38;;;2.92;;
75087;SDS011;63664;44.868;40.600;2023-08-21T01:20:02;7.13;;;2.75;;
75087;SDS011;63664;44.868;40.600;2023-08-21T01:22:35;4.78;;;2.67;;
75087;SDS011;63664;44.868;40.600;2023-08-21T01:25:07;4.45;;;2.22;;
75087;SDS011;63664;44.868;40.600;2023-08-21T01:27:37;9.18;;;2.83;;
75087;SDS011;63664;44.868;40.600;2023-08-21T01:30:07;8.40;;;2.60;;
75087;SDS011;63664;44.868;40.600;2023-08-21T01:35:05;6.15;;;2.35;;
75087;SDS011;63664;44.868;40.600;2023-08-21T01:37:32;4.00;;;2.53;;
75087;SDS011;63664;44.868;40.600;2023-08-21T01:39:59;10.75;;;2.17;;
75087;SDS011;63664;44.868;40.600;2023-08-21T01:42:26;4.32;;;2.42;;
75087;SDS011;63664;44.868;40.600;2023-08-21T01:44:52;8.32;;;2.55;;
75087;SDS011;63664;44.868;40.600;2023-08-21T01:47:18;4.75;;;2.17;;
75087;SDS011;63664;44.868;40.600;2023-08-21T01:49:44;4.35;;;2.40;;
75087;SDS011;63664;44.868;40.600;2023-08-21T01:52:12;7.05;;;2.42;;
75087;SDS011;63664;44.868;40.600;2023-08-21T01:54:39;5.80;;;2.78;;
75087;SDS011;63664;44.868;40.600;2023-08-21T01:57:05;9.43;;;2.42;;
75087;SDS011;63664;44.868;40.600;2023-08-21T01:59:32;7.78;;;2.42;;
75087;SDS011;63664;44.868;40.600;2023-08-21T02:01:58;3.45;;;2.40;;
75087;SDS011;63664;44.868;40.600;2023-08-21T02:04:24;7.45;;;2.65;;
75087;SDS011;63664;44.868;40.600;2023-08-21T02:06:50;8.82;;;2.65;;
75087;SDS011;63664;44.868;40.600;2023-08-21T02:09:17;7.85;;;2.40;;
75087;SDS011;63664;44.868;40.600;2023-08-21T02:11:43;7.63;;;2.10;;
75087;SDS011;63664;44.868;40.600;2023-08-21T02:14:09;7.13;;;3.13;;
75087;SDS011;63664;44.868;40.600;2023-08-21T02:16:35;9.43;;;3.22;;
75087;SDS011;63664;44.868;40.600;2023-08-21T02:19:03;5.55;;;2.90;;
75087;SDS011;63664;44.868;40.600;2023-08-21T02:21:29;6.93;;;3.03;;
75087;SDS011;63664;44.868;40.600;2023-08-21T02:23:55;7.20;;;3.00;;
75087;SDS011;63664;44.868;40.600;2023-08-21T02:26:22;4.85;;;3.08;;
75087;SDS011;63664;44.868;40.600;2023-08-21T02:28:49;5.43;;;2.90;;
75087;SDS011;63664;44.868;40.600;2023-08-21T02:31:16;5.82;;;2.75;;
75087;SDS011;63664;44.868;40.600;2023-08-21T02:33:43;5.13;;;2.83;;
75087;SDS011;63664;44.868;40.600;2023-08-21T02:36:09;6.82;;;2.83;;
75087;SDS011;63664;44.868;40.600;2023-08-21T02:38:35;10.32;;;2.42;;
75087;SDS011;63664;44.868;40.600;2023-08-21T02:41:03;7.00;;;2.75;;
75087;SDS011;63664;44.868;40.600;2023-08-21T02:43:29;8.10;;;2.70;;
75087;SDS011;63664;44.868;40.600;2023-08-21T02:45:56;6.65;;;2.63;;
75087;SDS011;63664;44.868;40.600;2023-08-21T02:48:22;3.70;;;2.15;;
75087;SDS011;63664;44.868;40.600;2023-08-21T02:50:48;5.45;;;2.35;;
75087;SDS011;63664;44.868;40.600;2023-08-21T02:53:15;13.88;;;2.55;;
75087;SDS011;63664;44.868;40.600;2023-08-21T02:55:41;5.22;;;2.47;;
75087;SDS011;63664;44.868;40.600;2023-08-21T02:58:07;5.80;;;2.30;;
75087;SDS011;63664;44.868;40.600;2023-08-21T03:00:34;6.93;;;3.03;;
75087;SDS011;63664;44.868;40.600;2023-08-21T03:03:01;11.02;;;2.30;;
75087;SDS011;63664;44.868;40.600;2023-08-21T03:05:27;5.20;;;2.20;;
75087;SDS011;63664;44.868;40.600;2023-08-21T03:07:53;6.15;;;1.98;;
75087;SDS011;63664;44.868;40.600;2023-08-21T03:10:20;6.05;;;1.88;;
75087;SDS011;63664;44.868;40.600;2023-08-21T03:12:48;10.15;;;2.30;;
75087;SDS011;63664;44.868;40.600;2023-08-21T03:15:15;4.22;;;1.75;;
75087;SDS011;63664;44.868;40.600;2023-08-21T03:17:41;4.38;;;1.88;;
75087;SDS011;63664;44.868;40.600;2023-08-21T03:20:07;4.10;;;1.88;;
75087;SDS011;63664;44.868;40.600;2023-08-21T03:22:34;4.28;;;1.60;;
75087;SDS011;63664;44.868;40.600;2023-08-21T03:25:01;4.03;;;1.40;;
75087;SDS011;63664;44.868;40.600;2023-08-21T03:27:28;6.57;;;1.50;;
75087;SDS011;63664;44.868;40.600;2023-08-21T03:29:55;2.65;;;1.40;;
75087;SDS011;63664;44.868;40.600;2023-08-21T03:32:22;4.90;;;1.80;;
75087;SDS011;63664;44.868;40.600;2023-08-21T03:34:48;5.20;;;1.35;;
75087;SDS011;63664;44.868;40.600;2023-08-21T03:37:14;3.35;;;1.50;;
75087;SDS011;63664;44.868;40.600;2023-08-21T03:39:40;4.68;;;1.42;;
75087;SDS011;63664;44.868;40.600;2023-08-21T03:42:10;4.88;;;1.55;;
75087;SDS011;63664;44.868;40.600;2023-08-21T03:44:37;3.25;;;1.67;;
75087;SDS011;63664;44.868;40.600;2023-08-21T03:47:06;2.80;;;1.42;;
75087;SDS011;63664;44.868;40.600;2023-08-21T03:49:41;4.40;;;1.30;;
75087;SDS011;63664;44.868;40.600;2023-08-21T03:52:07;2.72;;;1.67;;
75087;SDS011;63664;44.868;40.600;2023-08-21T03:54:35;4.32;;;1.52;;
75087;SDS011;63664;44.868;40.600;2023-08-21T03:57:02;6.03;;;1.50;;
75087;SDS011;63664;44.868;40.600;2023-08-21T03:59:28;6.13;;;2.08;;
75087;SDS011;63664;44.868;40.600;2023-08-21T04:01:54;5.30;;;1.50;;
75087;SDS011;63664;44.868;40.600;2023-08-21T04:04:21;6.88;;;2.05;;
75087;SDS011;63664;44.868;40.600;2023-08-21T04:06:47;3.90;;;1.95;;
75087;SDS011;63664;44.868;40.600;2023-08-21T04:09:13;4.38;;;1.90;;
75087;SDS011;63664;44.868;40.600;2023-08-21T04:11:40;5.78;;;2.28;;
75087;SDS011;63664;44.868;40.600;2023-08-21T04:14:07;18.30;;;2.33;;
75087;SDS011;63664;44.868;40.600;2023-08-21T04:16:33;11.10;;;2.08;;
75087;SDS011;63664;44.868;40.600;2023-08-21T04:19:00;4.50;;;1.65;;
75087;SDS011;63664;44.868;40.600;2023-08-21T04:21:26;6.03;;;1.67;;
75087;SDS011;63664;44.868;40.600;2023-08-21T04:23:52;4.40;;;1.58;;
75087;SDS011;63664;44.868;40.600;2023-08-21T04:26:19;3.45;;;1.45;;
75087;SDS011;63664;44.868;40.600;2023-08-21T04:28:46;7.30;;;1.70;;
75087;SDS011;63664;44.868;40.600;2023-08-21T04:31:14;2.53;;;1.25;;
75087;SDS011;63664;44.868;40.600;2023-08-21T04:33:42;4.25;;;1.50;;
75087;SDS011;63664;44.868;40.600;2023-08-21T04:36:14;7.63;;;1.63;;
75087;SDS011;63664;44.868;40.600;2023-08-21T04:38:42;4.43;;;1.40;;
75087;SDS011;63664;44.868;40.600;2023-08-21T04:41:09;8.88;;;1.67;;
75087;SDS011;63664;44.868;40.600;2023-08-21T04:43:41;5.85;;;1.58;;
75087;SDS011;63664;44.868;40.600;2023-08-21T04:46:08;2.92;;;1.35;;
75087;SDS011;63664;44.868;40.600;2023-08-21T04:48:37;3.55;;;1.88;;
75087;SDS011;63664;44.868;40.600;2023-08-21T04:51:04;4.35;;;1.70;;
75087;SDS011;63664;44.868;40.600;2023-08-21T04:53:30;5.07;;;1.50;;
75087;SDS011;63664;44.868;40.600;2023-08-21T04:56:00;4.82;;;1.42;;
75087;SDS011;63664;44.868;40.600;2023-08-21T04:58:28;3.03;;;1.45;;
75087;SDS011;63664;44.868;40.600;2023-08-21T05:00:55;4.82;;;1.20;;
75087;SDS011;63664;44.868;40.600;2023-08-21T05:03:22;6.63;;;1.52;;
75087;SDS011;63664;44.868;40.600;2023-08-21T05:05:52;6.15;;;1.40;;
75087;SDS011;63664;44.868;40.600;2023-08-21T05:08:21;12.13;;;2.03;;
75087;SDS011;63664;44.868;40.600;2023-08-21T05:10:53;6.15;;;1.75;;
75087;SDS011;63664;44.868;40.600;2023-08-21T05:13:22;2.92;;;1.27;;
75087;SDS011;63664;44.868;40.600;2023-08-21T05:15:55;5.82;;;1.63;;
75087;SDS011;63664;44.868;40.600;2023-08-21T05:18:24;5.82;;;1.60;;
75087;SDS011;63664;44.868;40.600;2023-08-21T05:20:53;12.57;;;2.30;;
75087;SDS011;63664;44.868;40.600;2023-08-21T05:23:21;6.68;;;1.50;;
75087;SDS011;63664;44.868;40.600;2023-08-21T05:25:50;4.50;;;1.50;;
75087;SDS011;63664;44.868;40.600;2023-08-21T05:28:16;3.67;;;1.52;;
75087;SDS011;63664;44.868;40.600;2023-08-21T05:30:42;4.00;;;1.60;;
75087;SDS011;63664;44.868;40.600;2023-08-21T05:33:12;3.33;;;1.80;;
75087;SDS011;63664;44.868;40.600;2023-08-21T05:35:39;13.77;;;2.30;;
75087;SDS011;63664;44.868;40.600;2023-08-21T05:38:07;4.93;;;1.30;;
75087;SDS011;63664;44.868;40.600;2023-08-21T05:40:34;2.85;;;1.15;;
75087;SDS011;63664;44.868;40.600;2023-08-21T05:43:01;2.75;;;1.50;;
75087;SDS011;63664;44.868;40.600;2023-08-21T05:45:27;5.63;;;1.67;;
75087;SDS011;63664;44.868;40.600;2023-08-21T05:47:54;5.78;;;1.58;;
75087;SDS011;63664;44.868;40.600;2023-08-21T05:50:21;5.32;;;3.00;;
75087;SDS011;63664;44.868;40.600;2023-08-21T05:52:47;5.30;;;2.70;;
75087;SDS011;63664;44.868;40.600;2023-08-21T05:55:15;5.97;;;2.47;;
75087;SDS011;63664;44.868;40.600;2023-08-21T05:57:41;10.75;;;2.35;;
75087;SDS011;63664;44.868;40.600;2023-08-21T06:00:09;6.10;;;2.42;;
75087;SDS011;63664;44.868;40.600;2023-08-21T06:02:42;7.57;;;2.50;;
75087;SDS011;63664;44.868;40.600;2023-08-21T06:05:15;5.85;;;2.25;;
75087;SDS011;63664;44.868;40.600;2023-08-21T06:07:43;7.07;;;1.85;;
75087;SDS011;63664;44.868;40.600;2023-08-21T06:10:09;4.60;;;1.60;;
75087;SDS011;63664;44.868;40.600;2023-08-21T06:12:41;5.15;;;1.50;;
75087;SDS011;63664;44.868;40.600;2023-08-21T06:15:08;3.58;;;1.80;;
75087;SDS011;63664;44.868;40.600;2023-08-21T06:17:35;3.38;;;1.55;;
75087;SDS011;63664;44.868;40.600;2023-08-21T06:20:03;1.80;;;1.15;;
75087;SDS011;63664;44.868;40.600;2023-08-21T06:22:39;5.45;;;1.90;;
75087;SDS011;63664;44.868;40.600;2023-08-21T06:25:07;8.82;;;1.50;;
75087;SDS011;63664;44.868;40.600;2023-08-21T06:30:01;5.82;;;1.23;;
75087;SDS011;63664;44.868;40.600;2023-08-21T06:32:28;4.13;;;1.65;;
75087;SDS011;63664;44.868;40.600;2023-08-21T06:34:54;2.88;;;1.50;;
75087;SDS011;63664;44.868;40.600;2023-08-21T06:37:20;5.13;;;1.40;;
75087;SDS011;63664;44.868;40.600;2023-08-21T06:39:47;3.88;;;1.42;;
75087;SDS011;63664;44.868;40.600;2023-08-21T06:42:14;8.15;;;1.75;;
75087;SDS011;63664;44.868;40.600;2023-08-21T06:44:47;2.60;;;1.65;;
75087;SDS011;63664;44.868;40.600;2023-08-21T06:47:14;3.35;;;1.48;;
75087;SDS011;63664;44.868;40.600;2023-08-21T06:49:40;10.00;;;1.83;;
75087;SDS011;63664;44.868;40.600;2023-08-21T06:52:06;5.43;;;1.67;;
75087;SDS011;63664;44.868;40.600;2023-08-21T06:54:32;6.85;;;1.83;;
75087;SDS011;63664;44.868;40.600;2023-08-21T06:56:59;6.60;;;2.15;;
75087;SDS011;63664;44.868;40.600;2023-08-21T06:59:25;2.47;;;1.42;;
75087;SDS011;63664;44.868;40.600;2023-08-21T07:01:51;2.47;;;1.60;;
75087;SDS011;63664;44.868;40.600;2023-08-21T07:04:17;6.18;;;1.70;;
75087;SDS011;63664;44.868;40.600;2023-08-21T07:06:44;4.35;;;1.83;;
75087;SDS011;63664;44.868;40.600;2023-08-21T07:09:10;4.53;;;1.50;;
75087;SDS011;63664;44.868;40.600;2023-08-21T07:11:36;4.10;;;1.60;;
75087;SDS011;63664;44.868;40.600;2023-08-21T07:14:03;3.38;;;2.17;;
75087;SDS011;63664;44.868;40.600;2023-08-21T07:16:29;2.33;;;1.50;;
75087;SDS011;63664;44.868;40.600;2023-08-21T07:18:55;3.67;;;1.40;;
75087;SDS011;63664;44.868;40.600;2023-08-21T07:21:22;3.33;;;1.80;;
75087;SDS011;63664;44.868;40.600;2023-08-21T07:23:48;2.17;;;1.52;;
75087;SDS011;63664;44.868;40.600;2023-08-21T07:26:14;2.08;;;1.15;;
75087;SDS011;63664;44.868;40.600;2023-08-21T07:28:40;2.25;;;1.30;;
75087;SDS011;63664;44.868;40.600;2023-08-21T07:31:07;8.30;;;1.90;;
75087;SDS011;63664;44.868;40.600;2023-08-21T07:33:33;3.58;;;1.50;;
75087;SDS011;63664;44.868;40.600;2023-08-21T07:36:03;5.60;;;1.50;;
75087;SDS011;63664;44.868;40.600;2023-08-21T07:38:31;4.65;;;1.63;;
75087;SDS011;63664;44.868;40.600;2023-08-21T07:41:07;2.28;;;1.20;;
75087;SDS011;63664;44.868;40.600;2023-08-21T07:43:39;4.28;;;1.20;;
75087;SDS011;63664;44.868;40.600;2023-08-21T07:46:07;6.20;;;1.27;;
75087;SDS011;63664;44.868;40.600;2023-08-21T07:48:37;3.78;;;1.38;;
75087;SDS011;63664;44.868;40.600;2023-08-21T07:51:03;2.53;;;1.05;;
75087;SDS011;63664;44.868;40.600;2023-08-21T07:53:29;3.88;;;1.10;;
75087;SDS011;63664;44.868;40.600;2023-08-21T07:56:00;3.72;;;1.38;;
75087;SDS011;63664;44.868;40.600;2023-08-21T07:58:29;2.58;;;1.33;;
75087;SDS011;63664;44.868;40.600;2023-08-21T08:00:56;6.43;;;1.50;;
75087;SDS011;63664;44.868;40.600;2023-08-21T08:03:23;2.15;;;1.10;;
75087;SDS011;63664;44.868;40.600;2023-08-21T08:05:49;7.65;;;1.83;;
75087;SDS011;63664;44.868;40.600;2023-08-21T08:08:16;4.43;;;1.33;;
75087;SDS011;63664;44.868;40.600;2023-08-21T08:10:43;4.07;;;1.15;;
75087;SDS011;63664;44.868;40.600;2023-08-21T08:13:10;4.68;;;1.40;;
75087;SDS011;63664;44.868;40.600;2023-08-21T08:15:36;7.13;;;1.20;;
75087;SDS011;63664;44.868;40.600;2023-08-21T08:18:03;8.57;;;1.70;;
75087;SDS011;63664;44.868;40.600;2023-08-21T08:20:31;5.68;;;1.30;;
75087;SDS011;63664;44.868;40.600;2023-08-21T08:22:57;8.45;;;1.67;;
75087;SDS011;63664;44.868;40.600;2023-08-21T08:25:23;7.88;;;1.33;;
75087;SDS011;63664;44.868;40.600;2023-08-21T08:27:51;5.10;;;1.20;;
75087;SDS011;63664;44.868;40.600;2023-08-21T08:30:17;3.30;;;1.08;;
75087;SDS011;63664;44.868;40.600;2023-08-21T08:32:51;5.78;;;1.30;;
75087;SDS011;63664;44.868;40.600;2023-08-21T08:35:18;1.38;;;1.10;;
75087;SDS011;63664;44.868;40.600;2023-08-21T08:37:44;3.60;;;1.30;;
75087;SDS011;63664;44.868;40.600;2023-08-21T08:40:10;4.32;;;1.20;;
75087;SDS011;63664;44.868;40.600;2023-08-21T08:42:38;2.72;;;1.17;;
75087;SDS011;63664;44.868;40.600;2023-08-21T08:45:05;4.00;;;1.13;;
75087;SDS011;63664;44.868;40.600;2023-08-21T08:47:32;2.42;;;1.00;;
75087;SDS011;63664;44.868;40.600;2023-08-21T08:50:03;2.30;;;1.02;;
75087;SDS011;63664;44.868;40.600;2023-08-21T08:52:36;3.13;;;1.10;;
75087;SDS011;63664;44.868;40.600;2023-08-21T08:55:05;2.88;;;1.13;;
75087;SDS011;63664;44.868;40.600;2023-08-21T08:57:33;1.65;;;0.93;;
75087;SDS011;63664;44.868;40.600;2023-08-21T09:00:00;2.17;;;0.93;;
75087;SDS011;63664;44.868;40.600;2023-08-21T09:02:31;5.10;;;1.20;;
75087;SDS011;63664;44.868;40.600;2023-08-21T09:04:57;15.70;;;2.17;;
75087;SDS011;63664;44.868;40.600;2023-08-21T09:07:24;1.92;;;0.93;;
75087;SDS011;63664;44.868;40.600;2023-08-21T09:09:51;4.53;;;1.13;;
75087;SDS011;63664;44.868;40.600;2023-08-21T09:12:18;3.90;;;1.00;;
75087;SDS011;63664;44.868;40.600;2023-08-21T09:14:45;2.65;;;1.23;;
75087;SDS011;63664;44.868;40.600;2023-08-21T09:17:12;2.42;;;1.20;;
75087;SDS011;63664;44.868;40.600;2023-08-21T09:19:40;5.93;;;1.20;;
75087;SDS011;63664;44.868;40.600;2023-08-21T09:22:10;2.17;;;1.10;;
75087;SDS011;63664;44.868;40.600;2023-08-21T09:24:38;1.10;;;0.82;;
75087;SDS011;63664;44.868;40.600;2023-08-21T09:27:17;2.80;;;1.00;;
75087;SDS011;63664;44.868;40.600;2023-08-21T09:29:44;2.42;;;1.02;;
75087;SDS011;63664;44.868;40.600;2023-08-21T09:32:13;1.98;;;1.00;;
75087;SDS011;63664;44.868;40.600;2023-08-21T09:34:44;2.53;;;0.90;;
75087;SDS011;63664;44.868;40.600;2023-08-21T09:37:11;4.57;;;1.10;;
75087;SDS011;63664;44.868;40.600;2023-08-21T09:39:38;3.72;;;1.05;;
75087;SDS011;63664;44.868;40.600;2023-08-21T09:42:05;2.70;;;0.85;;
75087;SDS011;63664;44.868;40.600;2023-08-21T09:44:38;4.32;;;0.98;;
75087;SDS011;63664;44.868;40.600;2023-08-21T09:47:09;1.42;;;1.00;;
75087;SDS011;63664;44.868;40.600;2023-08-21T09:49:37;2.20;;;1.08;;
75087;SDS011;63664;44.868;40.600;2023-08-21T09:52:07;4.30;;;1.20;;
75087;SDS011;63664;44.868;40.600;2023-08-21T09:54:38;3.17;;;1.10;;
75087;SDS011;63664;44.868;40.600;2023-08-21T09:57:05;2.58;;;0.90;;
75087;SDS011;63664;44.868;40.600;2023-08-21T09:59:32;3.97;;;1.10;;
75087;SDS011;63664;44.868;40.600;2023-08-21T10:01:59;2.00;;;1.13;;
75087;SDS011;63664;44.868;40.600;2023-08-21T10:04:30;2.63;;;1.13;;
75087;SDS011;63664;44.868;40.600;2023-08-21T10:07:00;4.60;;;1.30;;
75087;SDS011;63664;44.868;40.600;2023-08-21T10:09:32;2.83;;;0.95;;
75087;SDS011;63664;44.868;40.600;2023-08-21T10:11:59;1.80;;;1.40;;
75087;SDS011;63664;44.868;40.600;2023-08-21T10:14:26;4.00;;;1.20;;
75087;SDS011;63664;44.868;40.600;2023-08-21T10:16:53;2.53;;;1.30;;
75087;SDS011;63664;44.868;40.600;2023-08-21T10:19:20;9.05;;;2.53;;
75087;SDS011;63664;44.868;40.600;2023-08-21T10:21:47;2.90;;;1.23;;
75087;SDS011;63664;44.868;40.600;2023-08-21T10:24:35;3.35;;;1.30;;
75087;SDS011;63664;44.868;40.600;2023-08-21T10:27:09;4.28;;;1.50;;
75087;SDS011;63664;44.868;40.600;2023-08-21T10:29:38;2.20;;;1.35;;
75087;SDS011;63664;44.868;40.600;2023-08-21T10:32:05;3.45;;;1.10;;
75087;SDS011;63664;44.868;40.600;2023-08-21T10:34:36;6.93;;;1.20;;
75087;SDS011;63664;44.868;40.600;2023-08-21T10:37:07;2.33;;;1.20;;
75087;SDS011;63664;44.868;40.600;2023-08-21T10:42:09;2.63;;;1.20;;
75087;SDS011;63664;44.868;40.600;2023-08-21T10:50:01;3.42;;;1.20;;
75087;SDS011;63664;44.868;40.600;2023-08-21T10:52:35;2.85;;;1.17;;
75087;SDS011;63664;44.868;40.600;2023-08-21T10:55:05;3.47;;;1.20;;
75087;SDS011;63664;44.868;40.600;2023-08-21T10:57:32;4.13;;;1.20;;
75087;SDS011;63664;44.868;40.600;2023-08-21T11:00:00;2.45;;;1.17;;
75087;SDS011;63664;44.868;40.600;2023-08-21T11:02:38;2.50;;;1.40;;
75087;SDS011;63664;44.868;40.600;2023-08-21T11:05:06;3.22;;;1.27;;
75087;SDS011;63664;44.868;40.600;2023-08-21T11:07:44;4.78;;;1.30;;
75087;SDS011;63664;44.868;40.600;2023-08-21T11:10:13;2.25;;;0.93;;
75087;SDS011;63664;44.868;40.600;2023-08-21T11:12:51;2.15;;;1.17;;
75087;SDS011;63664;44.868;40.600;2023-08-21T11:15:21;2.10;;;1.00;;
75087;SDS011;63664;44.868;40.600;2023-08-21T11:17:56;3.67;;;1.17;;
75087;SDS011;63664;44.868;40.600;2023-08-21T11:20:31;5.63;;;1.40;;
75087;SDS011;63664;44.868;40.600;2023-08-21T11:23:00;5.85;;;1.80;;
75087;SDS011;63664;44.868;40.600;2023-08-21T11:25:28;3.13;;;1.10;;
75087;SDS011;63664;44.868;40.600;2023-08-21T11:27:55;2.55;;;1.10;;
75087;SDS011;63664;44.868;40.600;2023-08-21T11:30:22;3.95;;;1.30;;
75087;SDS011;63664;44.868;40.600;2023-08-21T11:33:03;2.15;;;1.05;;
75087;SDS011;63664;44.868;40.600;2023-08-21T11:35:36;3.60;;;1.35;;
75087;SDS011;63664;44.868;40.600;2023-08-21T11:38:04;2.78;;;0.88;;
75087;SDS011;63664;44.868;40.600;2023-08-21T11:40:30;4.53;;;1.10;;
75087;SDS011;63664;44.868;40.600;2023-08-21T11:43:00;1.10;;;0.90;;
75087;SDS011;63664;44.868;40.600;2023-08-21T11:45:37;1.83;;;1.13;;
75087;SDS011;63664;44.868;40.600;2023-08-21T11:48:04;1.70;;;0.98;;
75087;SDS011;63664;44.868;40.600;2023-08-21T11:50:30;1.83;;;0.90;;
75087;SDS011;63664;44.868;40.600;2023-08-21T11:52:56;4.75;;;1.10;;
75087;SDS011;63664;44.868;40.600;2023-08-21T11:55:23;3.50;;;1.20;;
75087;SDS011;63664;44.868;40.600;2023-08-21T11:57:50;2.55;;;1.10;;
75087;SDS011;63664;44.868;40.600;2023-08-21T12:00:19;1.98;;;0.90;;
75087;SDS011;63664;44.868;40.600;2023-08-21T12:02:53;3.08;;;0.90;;
75087;SDS011;63664;44.868;40.600;2023-08-21T12:05:26;3.83;;;1.25;;
75087;SDS011;63664;44.868;40.600;2023-08-21T12:07:53;2.17;;;1.05;;
75087;SDS011;63664;44.868;40.600;2023-08-21T12:10:27;2.42;;;0.90;;
75087;SDS011;63664;44.868;40.600;2023-08-21T12:12:55;1.20;;;0.85;;
75087;SDS011;63664;44.868;40.600;2023-08-21T12:15:22;1.30;;;1.00;;
75087;SDS011;63664;44.868;40.600;2023-08-21T12:17:48;1.38;;;0.82;;
75087;SDS011;63664;44.868;40.600;2023-08-21T12:20:14;4.93;;;0.98;;
75087;SDS011;63664;44.868;40.600;2023-08-21T12:22:41;1.92;;;1.30;;
75087;SDS011;63664;44.868;40.600;2023-08-21T12:25:12;4.03;;;1.13;;
75087;SDS011;63664;44.868;40.600;2023-08-21T12:27:39;1.83;;;0.98;;
75087;SDS011;63664;44.868;40.600;2023-08-21T12:30:05;1.63;;;1.02;;
75087;SDS011;63664;44.868;40.600;2023-08-21T12:32:32;2.10;;;1.27;;
75087;SDS011;63664;44.868;40.600;2023-08-21T12:34:59;4.82;;;1.50;;
75087;SDS011;63664;44.868;40.600;2023-08-21T12:37:25;1.45;;;1.00;;
75087;SDS011;63664;44.868;40.600;2023-08-21T12:39:53;1.80;;;0.90;;
75087;SDS011;63664;44.868;40.600;2023-08-21T12:42:19;1.98;;;1.10;;
75087;SDS011;63664;44.868;40.600;2023-08-21T12:44:45;1.90;;;1.00;;
75087;SDS011;63664;44.868;40.600;2023-08-21T12:47:11;3.45;;;0.73;;
75087;SDS011;63664;44.868;40.600;2023-08-21T12:49:38;3.88;;;1.30;;
75087;SDS011;63664;44.868;40.600;2023-08-21T12:52:04;2.10;;;1.05;;
75087;SDS011;63664;44.868;40.600;2023-08-21T12:54:32;1.85;;;1.05;;
75087;SDS011;63664;44.868;40.600;2023-08-21T12:56:58;3.65;;;1.25;;
75087;SDS011;63664;44.868;40.600;2023-08-21T12:59:25;2.90;;;1.30;;
75087;SDS011;63664;44.868;40.600;2023-08-21T13:01:51;3.60;;;1.10;;
75087;SDS011;63664;44.868;40.600;2023-08-21T13:04:18;3.55;;;1.10;;
75087;SDS011;63664;44.868;40.600;2023-08-21T13:06:44;5.47;;;1.13;;
75087;SDS011;63664;44.868;40.600;2023-08-21T13:09:11;3.05;;;1.20;;
75087;SDS011;63664;44.868;40.600;2023-08-21T13:11:37;1.98;;;1.15;;
75087;SDS011;63664;44.868;40.600;2023-08-21T13:14:03;4.68;;;1.10;;
75087;SDS011;63664;44.868;40.600;2023-08-21T13:16:30;3.22;;;1.30;;
75087;SDS011;63664;44.868;40.600;2023-08-21T13:18:56;4.00;;;1.60;;
75087;SDS011;63664;44.868;40.600;2023-08-21T13:21:23;1.45;;;1.30;;
75087;SDS011;63664;44.868;40.600;2023-08-21T13:23:49;4.30;;;1.50;;
75087;SDS011;63664;44.868;40.600;2023-08-21T13:26:15;6.03;;;1.60;;
75087;SDS011;63664;44.868;40.600;2023-08-21T13:28:42;4.15;;;1.40;;
75087;SDS011;63664;44.868;40.600;2023-08-21T13:31:08;2.03;;;1.33;;
75087;SDS011;63664;44.868;40.600;2023-08-21T13:33:46;4.10;;;1.50;;
75087;SDS011;63664;44.868;40.600;2023-08-21T13:36:14;3.17;;;1.40;;
75087;SDS011;63664;44.868;40.600;2023-08-21T13:38:41;4.57;;;1.40;;
75087;SDS011;63664;44.868;40.600;2023-08-21T13:41:07;2.88;;;1.10;;
75087;SDS011;63664;44.868;40.600;2023-08-21T13:43:35;2.58;;;1.00;;
75087;SDS011;63664;44.868;40.600;2023-08-21T13:46:01;3.58;;;1.10;;
75087;SDS011;63664;44.868;40.600;2023-08-21T13:48:31;5.13;;;1.20;;
75087;SDS011;63664;44.868;40.600;2023-08-21T13:50:58;3.20;;;1.10;;
75087;SDS011;63664;44.868;40.600;2023-08-21T13:53:24;2.38;;;1.20;;
75087;SDS011;63664;44.868;40.600;2023-08-21T13:55:51;3.00;;;1.13;;
75087;SDS011;63664;44.868;40.600;2023-08-21T13:58:18;3.15;;;1.08;;
75087;SDS011;63664;44.868;40.600;2023-08-21T14:00:45;2.65;;;1.30;;
75087;SDS011;63664;44.868;40.600;2023-08-21T14:03:11;1.42;;;1.27;;
75087;SDS011;63664;44.868;40.600;2023-08-21T14:05:37;1.35;;;1.17;;
75087;SDS011;63664;44.868;40.600;2023-08-21T14:08:04;7.20;;;1.70;;
75087;SDS011;63664;44.868;40.600;2023-08-21T14:10:30;5.18;;;1.45;;
75087;SDS011;63664;44.868;40.600;2023-08-21T14:12:56;7.15;;;1.70;;
75087;SDS011;63664;44.868;40.600;2023-08-21T14:15:23;3.72;;;1.42;;
75087;SDS011;63664;44.868;40.600;2023-08-21T14:17:49;2.15;;;1.40;;
75087;SDS011;63664;44.868;40.600;2023-08-21T14:20:16;3.88;;;1.40;;
75087;SDS011;63664;44.868;40.600;2023-08-21T14:22:42;7.88;;;2.00;;
75087;SDS011;63664;44.868;40.600;2023-08-21T14:25:09;2.13;;;1.40;;
75087;SDS011;63664;44.868;40.600;2023-08-21T14:27:36;3.17;;;1.73;;
75087;SDS011;63664;44.868;40.600;2023-08-21T14:30:03;2.13;;;1.50;;
75087;SDS011;63664;44.868;40.600;2023-08-21T14:32:31;5.45;;;1.42;;
75087;SDS011;63664;44.868;40.600;2023-08-21T14:34:57;7.68;;;1.50;;
75087;SDS011;63664;44.868;40.600;2023-08-21T14:37:24;9.52;;;1.85;;
75087;SDS011;63664;44.868;40.600;2023-08-21T14:39:50;5.35;;;1.35;;
75087;SDS011;63664;44.868;40.600;2023-08-21T14:42:16;1.88;;;1.20;;
75087;SDS011;63664;44.868;40.600;2023-08-21T14:44:43;4.93;;;1.45;;
75087;SDS011;63664;44.868;40.600;2023-08-21T14:47:09;4.45;;;1.23;;
75087;SDS011;63664;44.868;40.600;2023-08-21T14:49:36;67.10;;;6.57;;